QFA597 YBCG-YSSY
Flight info
| Callsign | QFA597 |
|---|---|
| Flight time | 1h 18m |
| Altitude | 36000 |
| Route | GOMOL Q16 APAGI H91 IGDAM H652 BOREE |
| Aircraft | B738/M-SDE2E3FGHIRWXY/LB1 |
Departure
| Time | 2026-04-24 12:30 |
|---|---|
| Airport | Gold Coast Airport (YBCG) |
Arrival
| Time | 2026-04-24 13:48 |
|---|---|
| Airport | Sydney Kingsford Smith International Airport (YSSY) |
| Time | Latitude | Longitude | Altitude | Speed | Heading |
|---|---|---|---|---|---|
| 2026-04-24 12:09 | -28.16778 | 153.51239 | 23 ft | 0 kts | 60° |
| 2026-04-24 12:16 | -28.16782 | 153.51228 | 22 ft | 2 kts | 60° |
| 2026-04-24 12:16 | -28.16787 | 153.51219 | 22 ft | 2 kts | 60° |
| 2026-04-24 12:16 | -28.16795 | 153.51205 | 22 ft | 2 kts | 46° |
| 2026-04-24 12:16 | -28.16806 | 153.51195 | 22 ft | 2 kts | 38° |
| 2026-04-24 12:17 | -28.16818 | 153.51186 | 22 ft | 2 kts | 28° |
| 2026-04-24 12:17 | -28.16831 | 153.51180 | 21 ft | 2 kts | 18° |
| 2026-04-24 12:17 | -28.16845 | 153.51175 | 21 ft | 2 kts | 8° |
| 2026-04-24 12:17 | -28.16859 | 153.51173 | 22 ft | 2 kts | 359° |
| 2026-04-24 12:18 | -28.16873 | 153.51175 | 22 ft | 2 kts | 349° |
| 2026-04-24 12:18 | -28.16886 | 153.51178 | 22 ft | 2 kts | 340° |
| 2026-04-24 12:18 | -28.16898 | 153.51184 | 22 ft | 0 kts | 331° |
| 2026-04-24 12:18 | -28.16904 | 153.51189 | 22 ft | 0 kts | 329° |
| 2026-04-24 12:22 | -28.16902 | 153.51187 | 22 ft | 1 kts | 329° |
| 2026-04-24 12:23 | -28.16870 | 153.51164 | 21 ft | 9 kts | 314° |
| 2026-04-24 12:23 | -28.16868 | 153.51091 | 21 ft | 9 kts | 265° |
| 2026-04-24 12:23 | -28.16832 | 153.51038 | 21 ft | 9 kts | 331° |
| 2026-04-24 12:23 | -28.16783 | 153.51006 | 21 ft | 14 kts | 330° |
| 2026-04-24 12:24 | -28.16653 | 153.50923 | 21 ft | 16 kts | 330° |
| 2026-04-24 12:24 | -28.16556 | 153.50861 | 21 ft | 15 kts | 330° |
| 2026-04-24 12:24 | -28.16465 | 153.50804 | 22 ft | 14 kts | 330° |
| 2026-04-24 12:24 | -28.16388 | 153.50754 | 23 ft | 12 kts | 330° |
| 2026-04-24 12:25 | -28.16321 | 153.50711 | 24 ft | 11 kts | 330° |
| 2026-04-24 12:25 | -28.16245 | 153.50664 | 24 ft | 15 kts | 330° |
| 2026-04-24 12:25 | -28.16146 | 153.50601 | 24 ft | 17 kts | 330° |
| 2026-04-24 12:25 | -28.16046 | 153.50537 | 24 ft | 16 kts | 330° |
| 2026-04-24 12:26 | -28.15950 | 153.50476 | 24 ft | 15 kts | 330° |
| 2026-04-24 12:26 | -28.15858 | 153.50417 | 25 ft | 14 kts | 330° |
| 2026-04-24 12:26 | -28.15773 | 153.50363 | 26 ft | 13 kts | 330° |
| 2026-04-24 12:26 | -28.15696 | 153.50314 | 27 ft | 12 kts | 330° |
| 2026-04-24 12:27 | -28.15628 | 153.50270 | 27 ft | 10 kts | 322° |
| 2026-04-24 12:27 | -28.15602 | 153.50207 | 28 ft | 8 kts | 265° |
| 2026-04-24 12:27 | -28.15605 | 153.50189 | 28 ft | 0 kts | 249° |
| 2026-04-24 12:28 | -28.15607 | 153.50185 | 28 ft | 3 kts | 247° |
| 2026-04-24 12:28 | -28.15630 | 153.50136 | 28 ft | 10 kts | 240° |
| 2026-04-24 12:29 | -28.15685 | 153.50098 | 27 ft | 10 kts | 156° |
| 2026-04-24 12:29 | -28.15749 | 153.50134 | 25 ft | 11 kts | 148° |
| 2026-04-24 12:29 | -28.15929 | 153.50249 | 24 ft | 61 kts | 149° |
| 2026-04-24 12:29 | -28.16464 | 153.50586 | 24 ft | 121 kts | 149° |
| 2026-04-24 12:30 | -28.17324 | 153.51143 | 100 ft | 162 kts | 149° |
| 2026-04-24 12:30 | -28.18279 | 153.51772 | 775 ft | 159 kts | 148° |
| 2026-04-24 12:30 | -28.19183 | 153.52367 | 1514 ft | 155 kts | 146° |
| 2026-04-24 12:30 | -28.20126 | 153.52968 | 2027 ft | 160 kts | 150° |
| 2026-04-24 12:31 | -28.21202 | 153.53415 | 2413 ft | 172 kts | 156° |
| 2026-04-24 12:31 | -28.22366 | 153.53850 | 2729 ft | 188 kts | 155° |
| 2026-04-24 12:31 | -28.23646 | 153.54379 | 3106 ft | 202 kts | 154° |
| 2026-04-24 12:31 | -28.25054 | 153.54855 | 3479 ft | 223 kts | 169° |
| 2026-04-24 12:32 | -28.26653 | 153.54509 | 3864 ft | 252 kts | 202° |
| 2026-04-24 12:32 | -28.27989 | 153.53163 | 4316 ft | 274 kts | 227° |
| 2026-04-24 12:32 | -28.29090 | 153.51332 | 4918 ft | 282 kts | 232° |
| 2026-04-24 12:32 | -28.30142 | 153.49434 | 5572 ft | 285 kts | 232° |
| 2026-04-24 12:33 | -28.31200 | 153.47582 | 6221 ft | 288 kts | 231° |
| 2026-04-24 12:33 | -28.32310 | 153.45705 | 6913 ft | 290 kts | 230° |
| 2026-04-24 12:33 | -28.33482 | 153.43768 | 7615 ft | 293 kts | 230° |
| 2026-04-24 12:33 | -28.34636 | 153.41875 | 8345 ft | 294 kts | 230° |
| 2026-04-24 12:34 | -28.35763 | 153.40033 | 8979 ft | 298 kts | 230° |
| 2026-04-24 12:34 | -28.36947 | 153.38095 | 9711 ft | 300 kts | 230° |
| 2026-04-24 12:34 | -28.38132 | 153.36151 | 10359 ft | 305 kts | 230° |
| 2026-04-24 12:34 | -28.39372 | 153.34123 | 10754 ft | 320 kts | 230° |
| 2026-04-24 12:35 | -28.40661 | 153.32018 | 11123 ft | 335 kts | 231° |
| 2026-04-24 12:35 | -28.42015 | 153.29800 | 11514 ft | 348 kts | 231° |
| 2026-04-24 12:35 | -28.43402 | 153.27522 | 12067 ft | 357 kts | 231° |
| 2026-04-24 12:35 | -28.44797 | 153.25220 | 12786 ft | 359 kts | 231° |
| 2026-04-24 12:36 | -28.46225 | 153.22862 | 13459 ft | 363 kts | 231° |
| 2026-04-24 12:36 | -28.47629 | 153.20546 | 14152 ft | 367 kts | 231° |
| 2026-04-24 12:36 | -28.49074 | 153.18159 | 14858 ft | 370 kts | 232° |
| 2026-04-24 12:36 | -28.50540 | 153.15741 | 15595 ft | 373 kts | 232° |
| 2026-04-24 12:37 | -28.52012 | 153.13312 | 16333 ft | 375 kts | 232° |
| 2026-04-24 12:37 | -28.53496 | 153.10860 | 17001 ft | 379 kts | 232° |
| 2026-04-24 12:37 | -28.54952 | 153.08456 | 17668 ft | 382 kts | 232° |
| 2026-04-24 12:37 | -28.56456 | 153.05971 | 18353 ft | 384 kts | 232° |
| 2026-04-24 12:38 | -28.57968 | 153.03471 | 19019 ft | 387 kts | 232° |
| 2026-04-24 12:38 | -28.59480 | 153.00970 | 19658 ft | 389 kts | 232° |
| 2026-04-24 12:38 | -28.61005 | 152.98448 | 20284 ft | 392 kts | 232° |
| 2026-04-24 12:39 | -28.65675 | 152.90720 | 22056 ft | 400 kts | 232° |
| 2026-04-24 12:39 | -28.67232 | 152.88141 | 22591 ft | 403 kts | 232° |
| 2026-04-24 12:39 | -28.68801 | 152.85538 | 23150 ft | 406 kts | 232° |
| 2026-04-24 12:40 | -28.70390 | 152.82899 | 23689 ft | 408 kts | 232° |
| 2026-04-24 12:40 | -28.71997 | 152.80234 | 24221 ft | 411 kts | 232° |
| 2026-04-24 12:40 | -28.73604 | 152.77563 | 24755 ft | 413 kts | 232° |
| 2026-04-24 12:40 | -28.75227 | 152.74863 | 25344 ft | 414 kts | 232° |
| 2026-04-24 12:41 | -28.76825 | 152.72203 | 25813 ft | 417 kts | 232° |
| 2026-04-24 12:41 | -28.78478 | 152.69449 | 26301 ft | 420 kts | 233° |
| 2026-04-24 12:41 | -28.80131 | 152.66695 | 26783 ft | 422 kts | 233° |
| 2026-04-24 12:41 | -28.81795 | 152.63922 | 27232 ft | 425 kts | 233° |
| 2026-04-24 12:42 | -28.83487 | 152.61182 | 27665 ft | 427 kts | 230° |
| 2026-04-24 12:42 | -28.85450 | 152.58594 | 28091 ft | 427 kts | 221° |
| 2026-04-24 12:42 | -28.87752 | 152.56426 | 28509 ft | 427 kts | 212° |
| 2026-04-24 12:42 | -28.90283 | 152.54668 | 28965 ft | 426 kts | 206° |
| 2026-04-24 12:43 | -28.92950 | 152.53114 | 29376 ft | 428 kts | 204° |
| 2026-04-24 12:43 | -28.95628 | 152.51663 | 29724 ft | 432 kts | 203° |
| 2026-04-24 12:43 | -28.98369 | 152.50191 | 30167 ft | 433 kts | 203° |
| 2026-04-24 12:43 | -29.01107 | 152.48692 | 30566 ft | 435 kts | 204° |
| 2026-04-24 12:44 | -29.03934 | 152.47105 | 30984 ft | 435 kts | 204° |
| 2026-04-24 12:44 | -29.06698 | 152.45514 | 31513 ft | 432 kts | 204° |
| 2026-04-24 12:44 | -29.09401 | 152.43933 | 32118 ft | 426 kts | 204° |
| 2026-04-24 12:44 | -29.12082 | 152.42349 | 32691 ft | 421 kts | 204° |
| 2026-04-24 12:45 | -29.14960 | 152.40637 | 33243 ft | 416 kts | 204° |
| 2026-04-24 12:45 | -29.17658 | 152.39027 | 33682 ft | 414 kts | 203° |
| 2026-04-24 12:45 | -29.20250 | 152.37479 | 34008 ft | 413 kts | 203° |
| 2026-04-24 12:45 | -29.22812 | 152.35947 | 34335 ft | 412 kts | 203° |
| 2026-04-24 12:46 | -29.25605 | 152.34276 | 34621 ft | 414 kts | 204° |
| 2026-04-24 12:46 | -29.28268 | 152.32683 | 34914 ft | 414 kts | 204° |
| 2026-04-24 12:46 | -29.30909 | 152.31102 | 35156 ft | 416 kts | 204° |
| 2026-04-24 12:46 | -29.33501 | 152.29549 | 35374 ft | 418 kts | 204° |
| 2026-04-24 12:47 | -29.36126 | 152.27974 | 35713 ft | 416 kts | 204° |
| 2026-04-24 12:47 | -29.38699 | 152.26428 | 36123 ft | 412 kts | 204° |
| 2026-04-24 12:47 | -29.41306 | 152.24860 | 36183 ft | 410 kts | 205° |
| 2026-04-24 12:47 | -29.43877 | 152.23314 | 36383 ft | 411 kts | 204° |
| 2026-04-24 12:48 | -29.46414 | 152.21788 | 36404 ft | 415 kts | 204° |
| 2026-04-24 12:48 | -29.51684 | 152.18617 | 36408 ft | 417 kts | 204° |
| 2026-04-24 12:49 | -29.56915 | 152.15463 | 36406 ft | 413 kts | 204° |
| 2026-04-24 12:49 | -29.62050 | 152.12364 | 36412 ft | 413 kts | 204° |
| 2026-04-24 12:50 | -29.67203 | 152.09283 | 36411 ft | 412 kts | 203° |
| 2026-04-24 12:50 | -29.72597 | 152.06781 | 36426 ft | 408 kts | 193° |
| 2026-04-24 12:51 | -29.78199 | 152.05193 | 36429 ft | 405 kts | 189° |
| 2026-04-24 12:51 | -29.83786 | 152.03819 | 36423 ft | 406 kts | 189° |
| 2026-04-24 12:52 | -29.89415 | 152.02411 | 36430 ft | 403 kts | 189° |
| 2026-04-24 12:52 | -29.95081 | 152.00957 | 36440 ft | 407 kts | 189° |
| 2026-04-24 12:53 | -30.00784 | 151.99472 | 36437 ft | 403 kts | 189° |
| 2026-04-24 12:53 | -30.06477 | 151.97978 | 36437 ft | 402 kts | 189° |
| 2026-04-24 12:54 | -30.12194 | 151.96480 | 36438 ft | 404 kts | 189° |
| 2026-04-24 12:54 | -30.18026 | 151.94948 | 36440 ft | 403 kts | 189° |
| 2026-04-24 12:55 | -30.23620 | 151.93477 | 36447 ft | 403 kts | 189° |
| 2026-04-24 12:55 | -30.29228 | 151.91997 | 36447 ft | 401 kts | 190° |
| 2026-04-24 12:56 | -30.34722 | 151.90152 | 36457 ft | 405 kts | 196° |
| 2026-04-24 12:56 | -30.40043 | 151.87740 | 36435 ft | 405 kts | 198° |
| 2026-04-24 12:57 | -30.45530 | 151.85123 | 36456 ft | 407 kts | 198° |
| 2026-04-24 12:57 | -30.50938 | 151.82558 | 36449 ft | 404 kts | 198° |
| 2026-04-24 12:58 | -30.56243 | 151.80064 | 36461 ft | 406 kts | 198° |
| 2026-04-24 12:58 | -30.61609 | 151.77554 | 36461 ft | 405 kts | 198° |
| 2026-04-24 12:59 | -30.66922 | 151.75066 | 36452 ft | 403 kts | 197° |
| 2026-04-24 12:59 | -30.72431 | 151.72487 | 36450 ft | 404 kts | 198° |
| 2026-04-24 13:00 | -30.77902 | 151.69925 | 36449 ft | 403 kts | 198° |
| 2026-04-24 13:00 | -30.83245 | 151.67419 | 36447 ft | 404 kts | 198° |
| 2026-04-24 13:01 | -30.88662 | 151.64876 | 36452 ft | 405 kts | 198° |
| 2026-04-24 13:01 | -30.93932 | 151.62396 | 36452 ft | 405 kts | 197° |
| 2026-04-24 13:02 | -30.99246 | 151.59895 | 36449 ft | 404 kts | 198° |
| 2026-04-24 13:02 | -31.04595 | 151.57375 | 36450 ft | 404 kts | 198° |
| 2026-04-24 13:03 | -31.10491 | 151.54593 | 36453 ft | 403 kts | 198° |
| 2026-04-24 13:03 | -31.16194 | 151.51897 | 36450 ft | 403 kts | 197° |
| 2026-04-24 13:04 | -31.21817 | 151.49236 | 36452 ft | 402 kts | 198° |
| 2026-04-24 13:04 | -31.27124 | 151.46722 | 36452 ft | 403 kts | 197° |
| 2026-04-24 13:05 | -31.32517 | 151.44165 | 36449 ft | 404 kts | 198° |
| 2026-04-24 13:05 | -31.37808 | 151.41652 | 36451 ft | 404 kts | 197° |
| 2026-04-24 13:06 | -31.43094 | 151.39210 | 36454 ft | 402 kts | 196° |
| 2026-04-24 13:06 | -31.48528 | 151.36803 | 36457 ft | 403 kts | 196° |
| 2026-04-24 13:07 | -31.53932 | 151.34410 | 36460 ft | 402 kts | 197° |
| 2026-04-24 13:07 | -31.59237 | 151.32048 | 36462 ft | 403 kts | 197° |
| 2026-04-24 13:08 | -31.64609 | 151.29646 | 36460 ft | 403 kts | 197° |
| 2026-04-24 13:08 | -31.70134 | 151.27168 | 36459 ft | 404 kts | 197° |
| 2026-04-24 13:09 | -31.78120 | 151.23579 | 36466 ft | 403 kts | 197° |
| 2026-04-24 13:09 | -31.80899 | 151.22330 | 36793 ft | 403 kts | 197° |
| 2026-04-24 13:09 | -31.83590 | 151.21118 | 36383 ft | 401 kts | 196° |
| 2026-04-24 13:10 | -31.86208 | 151.19937 | 36720 ft | 401 kts | 197° |
| 2026-04-24 13:10 | -31.88813 | 151.18764 | 36509 ft | 405 kts | 197° |
| 2026-04-24 13:10 | -31.91459 | 151.17572 | 35669 ft | 406 kts | 197° |
| 2026-04-24 13:10 | -31.94097 | 151.16382 | 35331 ft | 405 kts | 196° |
| 2026-04-24 13:11 | -31.96746 | 151.15189 | 34698 ft | 403 kts | 196° |
| 2026-04-24 13:11 | -31.99373 | 151.14009 | 34075 ft | 402 kts | 196° |
| 2026-04-24 13:11 | -32.02020 | 151.12823 | 33537 ft | 401 kts | 196° |
| 2026-04-24 13:11 | -32.04640 | 151.11652 | 33022 ft | 405 kts | 196° |
| 2026-04-24 13:12 | -32.07331 | 151.10448 | 32504 ft | 412 kts | 197° |
| 2026-04-24 13:12 | -32.10025 | 151.09242 | 31974 ft | 416 kts | 197° |
| 2026-04-24 13:12 | -32.12823 | 151.07989 | 31434 ft | 418 kts | 197° |
| 2026-04-24 13:12 | -32.15617 | 151.06735 | 30898 ft | 420 kts | 197° |
| 2026-04-24 13:13 | -32.18393 | 151.05487 | 30348 ft | 424 kts | 198° |
| 2026-04-24 13:13 | -32.21190 | 151.04228 | 29746 ft | 427 kts | 198° |
| 2026-04-24 13:13 | -32.23947 | 151.02986 | 29160 ft | 429 kts | 198° |
| 2026-04-24 13:13 | -32.26769 | 151.01714 | 28530 ft | 429 kts | 198° |
| 2026-04-24 13:14 | -32.29553 | 151.00455 | 27908 ft | 425 kts | 198° |
| 2026-04-24 13:14 | -32.32314 | 150.99205 | 27284 ft | 422 kts | 198° |
| 2026-04-24 13:14 | -32.35081 | 150.97952 | 26666 ft | 419 kts | 198° |
| 2026-04-24 13:14 | -32.37809 | 150.96716 | 26049 ft | 416 kts | 198° |
| 2026-04-24 13:15 | -32.40552 | 150.95474 | 25433 ft | 412 kts | 197° |
| 2026-04-24 13:15 | -32.43215 | 150.94267 | 24837 ft | 409 kts | 197° |
| 2026-04-24 13:15 | -32.45856 | 150.93072 | 24240 ft | 406 kts | 197° |
| 2026-04-24 13:15 | -32.48557 | 150.92035 | 23636 ft | 401 kts | 191° |
| 2026-04-24 13:16 | -32.51269 | 150.91498 | 23080 ft | 393 kts | 181° |
| 2026-04-24 13:16 | -32.53991 | 150.91539 | 22590 ft | 385 kts | 172° |
| 2026-04-24 13:16 | -32.56598 | 150.91939 | 22115 ft | 380 kts | 168° |
| 2026-04-24 13:16 | -32.59218 | 150.92494 | 21636 ft | 379 kts | 167° |
| 2026-04-24 13:17 | -32.61835 | 150.93083 | 21147 ft | 378 kts | 167° |
| 2026-04-24 13:17 | -32.64409 | 150.93646 | 20673 ft | 376 kts | 167° |
| 2026-04-24 13:17 | -32.67020 | 150.94183 | 20218 ft | 375 kts | 168° |
| 2026-04-24 13:17 | -32.69577 | 150.94682 | 19781 ft | 373 kts | 168° |
| 2026-04-24 13:18 | -32.72131 | 150.95160 | 19497 ft | 370 kts | 169° |
| 2026-04-24 13:18 | -32.74710 | 150.95630 | 19219 ft | 371 kts | 168° |
| 2026-04-24 13:18 | -32.77290 | 150.96097 | 18941 ft | 370 kts | 169° |
| 2026-04-24 13:18 | -32.79842 | 150.96553 | 18659 ft | 368 kts | 169° |
| 2026-04-24 13:19 | -32.82389 | 150.97008 | 18369 ft | 369 kts | 169° |
| 2026-04-24 13:19 | -32.84966 | 150.97466 | 18042 ft | 368 kts | 169° |
| 2026-04-24 13:19 | -32.87495 | 150.97916 | 17721 ft | 366 kts | 169° |
| 2026-04-24 13:19 | -32.90062 | 150.98372 | 17399 ft | 365 kts | 169° |
| 2026-04-24 13:20 | -32.92547 | 150.98814 | 17083 ft | 362 kts | 169° |
| 2026-04-24 13:20 | -32.95016 | 150.99254 | 16752 ft | 353 kts | 169° |
| 2026-04-24 13:20 | -32.97431 | 150.99683 | 16433 ft | 346 kts | 169° |
| 2026-04-24 13:20 | -32.99820 | 151.00110 | 16120 ft | 346 kts | 169° |
| 2026-04-24 13:21 | -33.02192 | 151.00534 | 15799 ft | 345 kts | 169° |
| 2026-04-24 13:21 | -33.04593 | 151.00964 | 15505 ft | 343 kts | 169° |
| 2026-04-24 13:21 | -33.06958 | 151.01388 | 15214 ft | 342 kts | 169° |
| 2026-04-24 13:21 | -33.09301 | 151.01807 | 14925 ft | 341 kts | 169° |
| 2026-04-24 13:22 | -33.11650 | 151.02228 | 14622 ft | 339 kts | 169° |
| 2026-04-24 13:22 | -33.13994 | 151.02647 | 14331 ft | 338 kts | 169° |
| 2026-04-24 13:22 | -33.16301 | 151.03061 | 14048 ft | 336 kts | 169° |
| 2026-04-24 13:22 | -33.18626 | 151.03481 | 13796 ft | 335 kts | 169° |
| 2026-04-24 13:23 | -33.20959 | 151.03902 | 13553 ft | 335 kts | 169° |
| 2026-04-24 13:23 | -33.23262 | 151.04317 | 13302 ft | 335 kts | 169° |
| 2026-04-24 13:23 | -33.25559 | 151.04738 | 13053 ft | 333 kts | 169° |
| 2026-04-24 13:23 | -33.28028 | 151.05206 | 12798 ft | 331 kts | 168° |
| 2026-04-24 13:24 | -33.30295 | 151.05646 | 12541 ft | 331 kts | 168° |
| 2026-04-24 13:24 | -33.32594 | 151.06093 | 12298 ft | 330 kts | 168° |
| 2026-04-24 13:24 | -33.34898 | 151.06538 | 12057 ft | 328 kts | 168° |
| 2026-04-24 13:24 | -33.37166 | 151.06975 | 11785 ft | 327 kts | 168° |
| 2026-04-24 13:25 | -33.39412 | 151.07407 | 11535 ft | 327 kts | 168° |
| 2026-04-24 13:25 | -33.41646 | 151.07834 | 11288 ft | 326 kts | 168° |
| 2026-04-24 13:25 | -33.43898 | 151.08263 | 11002 ft | 324 kts | 168° |
| 2026-04-24 13:25 | -33.46109 | 151.08687 | 10728 ft | 323 kts | 168° |
| 2026-04-24 13:26 | -33.48337 | 151.09116 | 10420 ft | 322 kts | 168° |
| 2026-04-24 13:26 | -33.50550 | 151.09541 | 10119 ft | 314 kts | 168° |
| 2026-04-24 13:26 | -33.52681 | 151.09950 | 9813 ft | 305 kts | 168° |
| 2026-04-24 13:26 | -33.54736 | 151.10344 | 9560 ft | 291 kts | 167° |
| 2026-04-24 13:27 | -33.56686 | 151.10718 | 9298 ft | 278 kts | 167° |
| 2026-04-24 13:27 | -33.58582 | 151.11083 | 9052 ft | 267 kts | 167° |
| 2026-04-24 13:27 | -33.60428 | 151.11440 | 8855 ft | 263 kts | 167° |
| 2026-04-24 13:27 | -33.62242 | 151.11795 | 8630 ft | 263 kts | 167° |
| 2026-04-24 13:28 | -33.64068 | 151.12158 | 8397 ft | 262 kts | 167° |
| 2026-04-24 13:28 | -33.65879 | 151.12518 | 8166 ft | 262 kts | 167° |
| 2026-04-24 13:28 | -33.67733 | 151.12885 | 7934 ft | 262 kts | 167° |
| 2026-04-24 13:28 | -33.69527 | 151.13237 | 7715 ft | 261 kts | 167° |
| 2026-04-24 13:29 | -33.71330 | 151.13591 | 7520 ft | 259 kts | 167° |
| 2026-04-24 13:29 | -33.73100 | 151.13933 | 7320 ft | 253 kts | 167° |
| 2026-04-24 13:29 | -33.74829 | 151.14265 | 7131 ft | 247 kts | 167° |
| 2026-04-24 13:29 | -33.76509 | 151.14590 | 6943 ft | 241 kts | 167° |
| 2026-04-24 13:30 | -33.78170 | 151.14914 | 6760 ft | 237 kts | 167° |
| 2026-04-24 13:30 | -33.79799 | 151.15233 | 6564 ft | 240 kts | 167° |
| 2026-04-24 13:30 | -33.81477 | 151.15419 | 6388 ft | 243 kts | 180° |
| 2026-04-24 13:30 | -33.83153 | 151.15086 | 6239 ft | 244 kts | 193° |
| 2026-04-24 13:31 | -33.84792 | 151.14537 | 6111 ft | 244 kts | 194° |
| 2026-04-24 13:31 | -33.86435 | 151.13994 | 5977 ft | 242 kts | 192° |
| 2026-04-24 13:31 | -33.88090 | 151.13490 | 5982 ft | 242 kts | 192° |
| 2026-04-24 13:31 | -33.89717 | 151.13017 | 5978 ft | 242 kts | 191° |
| 2026-04-24 13:32 | -33.91358 | 151.12546 | 5980 ft | 243 kts | 191° |
| 2026-04-24 13:32 | -33.93013 | 151.12071 | 5977 ft | 242 kts | 191° |
| 2026-04-24 13:32 | -33.94672 | 151.11594 | 5981 ft | 242 kts | 191° |
| 2026-04-24 13:32 | -33.96312 | 151.11121 | 5979 ft | 242 kts | 191° |
| 2026-04-24 13:33 | -33.97952 | 151.10648 | 5979 ft | 242 kts | 192° |
| 2026-04-24 13:33 | -33.99589 | 151.10133 | 5983 ft | 241 kts | 193° |
| 2026-04-24 13:33 | -34.01224 | 151.09590 | 5980 ft | 240 kts | 194° |
| 2026-04-24 13:33 | -34.02845 | 151.09047 | 5982 ft | 242 kts | 194° |
| 2026-04-24 13:34 | -34.03934 | 151.08679 | 5983 ft | 242 kts | 194° |
| 2026-04-24 13:34 | -34.06192 | 151.07918 | 5993 ft | 243 kts | 194° |
| 2026-04-24 13:34 | -34.07852 | 151.07359 | 5985 ft | 244 kts | 194° |
| 2026-04-24 13:34 | -34.09489 | 151.06805 | 5977 ft | 243 kts | 194° |
| 2026-04-24 13:35 | -34.11138 | 151.06244 | 5978 ft | 243 kts | 194° |
| 2026-04-24 13:35 | -34.12787 | 151.05679 | 5978 ft | 243 kts | 194° |
| 2026-04-24 13:35 | -34.14434 | 151.05222 | 5974 ft | 242 kts | 180° |
| 2026-04-24 13:35 | -34.16103 | 151.05321 | 5979 ft | 238 kts | 169° |
| 2026-04-24 13:36 | -34.17754 | 151.05614 | 5974 ft | 237 kts | 168° |
| 2026-04-24 13:36 | -34.19374 | 151.05924 | 5977 ft | 236 kts | 168° |
| 2026-04-24 13:36 | -34.21015 | 151.06241 | 5977 ft | 237 kts | 168° |
| 2026-04-24 13:36 | -34.22644 | 151.06558 | 5974 ft | 236 kts | 168° |
| 2026-04-24 13:37 | -34.24283 | 151.06879 | 5973 ft | 237 kts | 168° |
| 2026-04-24 13:37 | -34.25940 | 151.07202 | 5971 ft | 238 kts | 168° |
| 2026-04-24 13:37 | -34.27574 | 151.07521 | 5976 ft | 238 kts | 168° |
| 2026-04-24 13:37 | -34.29219 | 151.07846 | 5975 ft | 238 kts | 168° |
| 2026-04-24 13:38 | -34.30858 | 151.08170 | 5973 ft | 237 kts | 168° |
| 2026-04-24 13:38 | -34.32470 | 151.08601 | 5965 ft | 235 kts | 152° |
| 2026-04-24 13:38 | -34.33680 | 151.09824 | 5800 ft | 226 kts | 117° |
| 2026-04-24 13:38 | -34.34265 | 151.11571 | 5546 ft | 221 kts | 104° |
| 2026-04-24 13:39 | -34.34693 | 151.13382 | 5287 ft | 219 kts | 103° |
| 2026-04-24 13:39 | -34.35102 | 151.15153 | 5081 ft | 214 kts | 103° |
| 2026-04-24 13:39 | -34.35321 | 151.16884 | 4970 ft | 202 kts | 82° |
| 2026-04-24 13:39 | -34.35033 | 151.18539 | 4976 ft | 204 kts | 73° |
| 2026-04-24 13:40 | -34.34642 | 151.20180 | 4968 ft | 203 kts | 69° |
| 2026-04-24 13:40 | -34.33823 | 151.21535 | 4970 ft | 205 kts | 34° |
| 2026-04-24 13:40 | -34.32532 | 151.22302 | 4864 ft | 206 kts | 23° |
| 2026-04-24 13:40 | -34.31194 | 151.22940 | 4699 ft | 204 kts | 23° |
| 2026-04-24 13:41 | -34.29866 | 151.23572 | 4522 ft | 199 kts | 23° |
| 2026-04-24 13:41 | -34.28589 | 151.24179 | 4353 ft | 194 kts | 23° |
| 2026-04-24 13:41 | -34.27348 | 151.24744 | 4194 ft | 189 kts | 20° |
| 2026-04-24 13:41 | -34.26039 | 151.25120 | 4067 ft | 192 kts | 9° |
| 2026-04-24 13:42 | -34.24713 | 151.25162 | 3959 ft | 190 kts | 359° |
| 2026-04-24 13:42 | -34.23399 | 151.24974 | 3856 ft | 187 kts | 353° |
| 2026-04-24 13:42 | -34.22107 | 151.24690 | 3789 ft | 188 kts | 352° |
| 2026-04-24 13:42 | -34.20818 | 151.24371 | 3714 ft | 188 kts | 351° |
| 2026-04-24 13:43 | -34.19533 | 151.24043 | 3638 ft | 188 kts | 351° |
| 2026-04-24 13:43 | -34.18258 | 151.23714 | 3559 ft | 182 kts | 350° |
| 2026-04-24 13:43 | -34.16992 | 151.23383 | 3483 ft | 182 kts | 351° |
| 2026-04-24 13:43 | -34.15741 | 151.23059 | 3410 ft | 183 kts | 351° |
| 2026-04-24 13:44 | -34.14491 | 151.22736 | 3334 ft | 183 kts | 351° |
| 2026-04-24 13:44 | -34.13247 | 151.22412 | 3256 ft | 182 kts | 351° |
| 2026-04-24 13:44 | -34.12001 | 151.22089 | 3169 ft | 180 kts | 351° |
| 2026-04-24 13:44 | -34.10777 | 151.21771 | 2907 ft | 179 kts | 351° |
| 2026-04-24 13:45 | -34.09573 | 151.21457 | 2686 ft | 169 kts | 351° |
| 2026-04-24 13:45 | -34.08430 | 151.21164 | 2423 ft | 167 kts | 351° |
| 2026-04-24 13:45 | -34.07278 | 151.20866 | 2198 ft | 167 kts | 351° |
| 2026-04-24 13:45 | -34.06174 | 151.20579 | 2016 ft | 163 kts | 351° |
| 2026-04-24 13:46 | -34.05086 | 151.20296 | 1729 ft | 154 kts | 351° |
| 2026-04-24 13:46 | -34.04055 | 151.20032 | 1557 ft | 151 kts | 351° |
| 2026-04-24 13:46 | -34.03008 | 151.19762 | 1342 ft | 151 kts | 350° |
| 2026-04-24 13:46 | -34.01979 | 151.19495 | 1141 ft | 151 kts | 349° |
| 2026-04-24 13:47 | -34.00940 | 151.19226 | 935 ft | 151 kts | 349° |
| 2026-04-24 13:47 | -33.99920 | 151.18956 | 720 ft | 149 kts | 348° |
| 2026-04-24 13:47 | -33.98911 | 151.18695 | 540 ft | 151 kts | 348° |
| 2026-04-24 13:47 | -33.97889 | 151.18436 | 353 ft | 150 kts | 347° |
| 2026-04-24 13:48 | -33.96903 | 151.18181 | 165 ft | 149 kts | 346° |
| 2026-04-24 13:48 | -33.95934 | 151.17935 | 16 ft | 146 kts | 346° |
| 2026-04-24 13:48 | -33.95153 | 151.17734 | 18 ft | 86 kts | 348° |
| 2026-04-24 13:48 | -33.94773 | 151.17648 | 22 ft | 47 kts | 350° |